createdAt,value
2018-12-14T00:00:52.948Z,36.78
2018-12-14T00:01:52.909Z,36.59
2018-12-14T00:02:52.854Z,35.55
2018-12-14T00:03:52.814Z,36.14
2018-12-14T00:04:52.775Z,36.31
2018-12-14T00:05:52.729Z,35.36
2018-12-14T00:06:52.679Z,35.66
2018-12-14T00:07:52.637Z,33.66
2018-12-14T00:08:52.591Z,34.13
2018-12-14T00:09:52.545Z,33.49
2018-12-14T00:10:52.508Z,33.68
2018-12-14T00:11:52.461Z,34.70
2018-12-14T00:12:52.418Z,36.04
2018-12-14T00:13:52.374Z,35.74
2018-12-14T00:14:52.326Z,34.80
2018-12-14T00:15:52.282Z,36.12
2018-12-14T00:16:52.237Z,35.55
2018-12-14T00:17:52.191Z,35.74
2018-12-14T00:18:52.153Z,35.27
2018-12-14T00:19:52.122Z,33.56
2018-12-14T00:20:52.059Z,31.86
2018-12-14T00:21:52.017Z,30.26
2018-12-14T00:22:51.975Z,30.16
2018-12-14T00:23:51.931Z,30.35
2018-12-14T00:24:51.885Z,30.73
2018-12-14T00:25:51.842Z,32.15
2018-12-14T00:26:51.806Z,31.39
2018-12-14T00:27:51.749Z,34.99
2018-12-14T00:28:51.705Z,34.70
2018-12-14T00:29:51.658Z,33.28
2018-12-14T00:30:51.621Z,32.05
2018-12-14T00:31:51.576Z,34.23
2018-12-14T00:32:51.530Z,36.49
2018-12-14T00:33:51.487Z,37.73
2018-12-14T00:34:51.439Z,36.12
2018-12-14T00:35:51.393Z,37.16
2018-12-14T00:36:51.355Z,37.25
2018-12-14T00:37:51.334Z,36.31
2018-12-14T00:38:51.260Z,37.35
2018-12-14T00:39:51.216Z,38.48
2018-12-14T00:40:51.176Z,38.39
2018-12-14T00:41:52.070Z,36.87
2018-12-14T00:42:51.088Z,34.32
2018-12-14T00:43:51.041Z,34.70
2018-12-14T00:44:50.998Z,35.74
2018-12-14T00:45:50.954Z,39.81
2018-12-14T00:46:50.902Z,40.09
2018-12-14T00:47:50.860Z,40.00
2018-12-14T00:48:50.818Z,39.90
2018-12-14T00:49:50.772Z,39.14
2018-12-14T00:50:50.730Z,38.20
2018-12-14T00:51:50.684Z,41.70
2018-12-14T00:52:50.638Z,40.47
2018-12-14T00:53:50.591Z,41.70
2018-12-14T00:54:50.554Z,41.03
2018-12-14T00:55:50.510Z,39.81
2018-12-14T00:56:50.463Z,40.56
2018-12-14T00:57:50.419Z,40.56
2018-12-14T00:58:50.371Z,42.27
2018-12-14T00:59:50.329Z,42.08
2018-12-14T01:00:50.282Z,41.41
2018-12-14T01:01:50.236Z,40.09
2018-12-14T01:02:50.196Z,39.81
2018-12-14T01:03:50.150Z,41.03
2018-12-14T01:04:50.110Z,43.30
2018-12-14T01:05:50.068Z,41.51
2018-12-14T01:06:50.015Z,41.03
2018-12-14T01:07:49.971Z,41.70
2018-12-14T01:08:49.929Z,41.98
2018-12-14T01:09:49.891Z,40.37
2018-12-14T01:10:49.837Z,38.39
2018-12-14T01:11:49.792Z,41.22
2018-12-14T01:12:49.755Z,44.53
2018-12-14T01:13:49.703Z,43.30
2018-12-14T01:14:49.663Z,42.27
2018-12-14T01:15:49.639Z,42.36
2018-12-14T01:16:49.574Z,41.22
2018-12-14T01:17:49.529Z,41.41
2018-12-14T01:18:49.482Z,39.81
2018-12-14T01:19:49.436Z,38.48
2018-12-14T01:20:49.394Z,37.92
2018-12-14T01:21:49.345Z,38.10
2018-12-14T01:22:49.307Z,36.68
2018-12-14T01:23:49.259Z,36.49
2018-12-14T01:24:49.212Z,36.12
2018-12-14T01:25:49.167Z,36.49
2018-12-14T01:26:49.128Z,37.44
2018-12-14T01:27:49.081Z,34.51
2018-12-14T01:28:49.038Z,33.56
2018-12-14T01:29:49.000Z,33.37
2018-12-14T01:30:48.943Z,31.48
2018-12-14T01:31:48.905Z,30.35
2018-12-14T01:32:48.857Z,33.28
2018-12-14T01:33:48.813Z,33.94
2018-12-14T01:34:48.774Z,33.75
2018-12-14T01:35:48.725Z,35.64
2018-12-14T01:36:48.679Z,34.23
2018-12-14T01:37:48.639Z,33.28
2018-12-14T01:38:48.590Z,35.55
2018-12-14T01:39:48.545Z,34.80
2018-12-14T01:40:48.503Z,35.55
2018-12-14T01:41:48.461Z,36.40
2018-12-14T01:42:48.412Z,35.17
2018-12-14T01:43:48.370Z,36.31
2018-12-14T01:44:48.342Z,35.55
2018-12-14T01:45:48.276Z,39.52
2018-12-14T01:46:48.250Z,38.48
2018-12-14T01:47:48.192Z,41.98
2018-12-14T01:48:48.148Z,39.90
2018-12-14T01:49:48.108Z,38.57
2018-12-14T01:50:48.056Z,41.60
2018-12-14T01:51:48.011Z,40.00
2018-12-14T01:52:47.969Z,39.90
2018-12-14T01:53:47.928Z,39.52
2018-12-14T01:54:47.883Z,41.89
2018-12-14T01:55:47.835Z,44.63
2018-12-14T01:56:47.791Z,44.06
2018-12-14T01:57:47.742Z,42.93
2018-12-14T01:58:47.716Z,42.27
2018-12-14T01:59:47.659Z,40.66
2018-12-14T02:00:47.614Z,42.17
2018-12-14T02:01:47.572Z,42.74
2018-12-14T02:02:47.521Z,43.40
2018-12-14T02:03:47.480Z,43.30
2018-12-14T02:04:47.439Z,41.79
2018-12-14T02:05:47.390Z,42.55
2018-12-14T02:06:47.349Z,41.41
2018-12-14T02:07:47.303Z,41.51
2018-12-14T02:08:47.259Z,43.77
2018-12-14T02:09:47.215Z,46.52
2018-12-14T02:10:47.166Z,45.57
2018-12-14T02:11:47.122Z,45.67
2018-12-14T02:12:47.081Z,44.72
2018-12-14T02:13:47.042Z,45.39
2018-12-14T02:14:46.988Z,42.74
2018-12-14T02:15:46.946Z,42.27
2018-12-14T02:16:46.906Z,44.82
2018-12-14T02:17:46.858Z,44.06
2018-12-14T02:18:46.831Z,43.40
2018-12-14T02:19:46.770Z,42.74
2018-12-14T02:20:46.725Z,44.06
2018-12-14T02:21:46.683Z,46.14
2018-12-14T02:22:46.630Z,46.33
2018-12-14T02:23:46.590Z,44.91
2018-12-14T02:24:46.547Z,43.96
2018-12-14T02:25:46.531Z,45.57
2018-12-14T02:26:46.463Z,44.53
2018-12-14T02:27:46.413Z,43.96
2018-12-14T02:28:46.370Z,43.87
2018-12-14T02:29:46.321Z,43.96
2018-12-14T02:30:46.284Z,46.23
2018-12-14T02:31:46.236Z,46.23
2018-12-14T02:32:46.191Z,47.09
2018-12-14T02:33:46.148Z,47.66
2018-12-14T02:34:46.102Z,48.97
2018-12-14T02:35:46.054Z,48.41
2018-12-14T02:36:46.011Z,47.56
2018-12-14T02:37:45.968Z,44.63
2018-12-14T02:38:45.927Z,43.30
2018-12-14T02:39:45.877Z,43.02
2018-12-14T02:40:45.839Z,44.53
2018-12-14T02:41:45.793Z,42.93
2018-12-14T02:42:45.742Z,41.79
2018-12-14T02:43:45.699Z,41.89
2018-12-14T02:44:45.658Z,42.27
2018-12-14T02:45:45.618Z,40.84
2018-12-14T02:46:45.566Z,44.63
2018-12-14T02:47:45.519Z,45.57
2018-12-14T02:48:45.483Z,43.40
2018-12-14T02:49:45.450Z,43.87
2018-12-14T02:50:45.395Z,41.89
2018-12-14T02:51:45.344Z,42.36
2018-12-14T02:52:45.308Z,42.45
2018-12-14T02:53:45.262Z,41.41
2018-12-14T02:54:45.210Z,43.21
2018-12-14T02:55:45.166Z,42.27
2018-12-14T02:56:45.120Z,41.70
2018-12-14T02:57:45.075Z,41.13
2018-12-14T02:58:45.036Z,40.47
2018-12-14T02:59:44.991Z,40.47
2018-12-14T03:00:44.944Z,38.48
2018-12-14T03:01:44.907Z,38.48
2018-12-14T03:02:44.857Z,44.34
2018-12-14T03:03:44.811Z,44.82
2018-12-14T03:04:44.768Z,43.30
2018-12-14T03:05:44.728Z,42.74
2018-12-14T03:06:44.674Z,41.60
2018-12-14T03:07:44.634Z,39.81
2018-12-14T03:08:44.586Z,39.62
2018-12-14T03:09:44.556Z,38.29
2018-12-14T03:10:44.502Z,36.31
2018-12-14T03:11:44.460Z,39.33
2018-12-14T03:12:44.416Z,38.20
2018-12-14T03:13:44.371Z,37.35
2018-12-14T03:14:44.317Z,38.57
2018-12-14T03:15:44.282Z,37.63
2018-12-14T03:16:44.235Z,41.13
2018-12-14T03:17:44.194Z,43.30
2018-12-14T03:18:44.140Z,44.72
2018-12-14T03:19:44.119Z,45.01
2018-12-14T03:20:44.057Z,44.06
2018-12-14T03:21:44.008Z,42.36
2018-12-14T03:22:43.970Z,43.12
2018-12-14T03:23:43.924Z,41.70
2018-12-14T03:24:43.880Z,41.60
2018-12-14T03:25:43.835Z,40.09
2018-12-14T03:26:43.788Z,39.71
2018-12-14T03:27:43.744Z,38.29
2018-12-14T03:28:43.696Z,39.71
2018-12-14T03:29:43.653Z,41.89
2018-12-14T03:30:43.614Z,39.90
2018-12-14T03:31:43.570Z,42.36
2018-12-14T03:32:43.539Z,42.64
2018-12-14T03:33:43.518Z,41.89
2018-12-14T03:34:43.437Z,41.79
2018-12-14T03:35:43.390Z,41.70
2018-12-14T03:36:43.351Z,39.90
2018-12-14T03:37:43.305Z,39.81
2018-12-14T03:38:43.255Z,40.37
2018-12-14T03:39:43.215Z,39.90
2018-12-14T03:40:43.170Z,42.27
2018-12-14T03:41:43.132Z,41.03
2018-12-14T03:42:43.075Z,41.22
2018-12-14T03:43:43.035Z,40.09
2018-12-14T03:44:42.989Z,37.63
2018-12-14T03:45:42.948Z,37.35
2018-12-14T03:46:42.903Z,39.81
2018-12-14T03:47:42.862Z,41.89
2018-12-14T03:48:42.809Z,39.43
2018-12-14T03:49:42.772Z,39.90
2018-12-14T03:50:42.731Z,39.43
2018-12-14T03:51:42.682Z,39.62
2018-12-14T03:52:42.635Z,38.48
2018-12-14T04:06:51.876Z,42.17
2018-12-14T04:07:51.805Z,40.37
2018-12-14T04:08:51.767Z,39.62
2018-12-14T04:09:51.702Z,38.10
2018-12-14T04:10:51.657Z,38.57
2018-12-14T04:11:51.628Z,40.66
2018-12-14T04:13:00.231Z,39.81
2018-12-14T04:14:55.982Z,41.03
2018-12-14T04:15:55.911Z,38.10
2018-12-14T04:16:55.865Z,39.33
2018-12-14T04:17:55.823Z,38.39
2018-12-14T04:18:55.771Z,38.20
2018-12-14T04:19:55.732Z,35.55
2018-12-14T04:20:55.683Z,35.55
2018-12-14T04:21:55.634Z,34.04
2018-12-14T04:22:55.599Z,33.47
2018-12-14T04:23:55.551Z,33.28
2018-12-14T04:24:55.505Z,32.15
2018-12-14T04:25:55.454Z,31.77
2018-12-14T04:26:55.418Z,33.85
2018-12-14T04:27:55.375Z,34.32
2018-12-14T04:28:55.324Z,32.53
2018-12-14T04:29:55.281Z,34.13
2018-12-14T04:30:55.230Z,32.62
2018-12-14T04:31:55.188Z,32.24
2018-12-14T04:32:55.143Z,32.71
2018-12-14T04:33:55.101Z,33.09
2018-12-14T04:34:55.058Z,33.75
2018-12-14T04:35:55.012Z,33.09
2018-12-14T04:36:54.968Z,32.90
2018-12-14T04:37:54.989Z,32.15
2018-12-14T04:38:54.879Z,30.73
2018-12-14T04:39:54.830Z,30.26
2018-12-14T04:40:54.792Z,29.60
2018-12-14T04:41:54.751Z,30.35
2018-12-14T04:42:54.695Z,29.50
2018-12-14T04:43:54.653Z,30.35
2018-12-14T04:44:54.622Z,29.50
2018-12-14T04:45:54.618Z,28.17
2018-12-14T04:46:54.521Z,27.89
2018-12-14T04:47:54.475Z,31.10
2018-12-14T04:48:54.431Z,30.73
2018-12-14T04:49:54.392Z,30.63
2018-12-14T04:50:54.338Z,30.26
2018-12-14T04:51:54.310Z,30.07
2018-12-14T04:52:54.252Z,32.05
2018-12-14T04:53:54.210Z,29.69
2018-12-14T04:54:54.167Z,29.41
2018-12-14T04:55:54.120Z,28.74
2018-12-14T04:56:54.075Z,26.19
2018-12-14T04:57:54.026Z,26.76
2018-12-14T04:58:53.990Z,30.35
2018-12-14T04:59:53.942Z,28.84
2018-12-14T05:00:53.900Z,29.79
2018-12-14T05:01:53.854Z,29.79
2018-12-14T05:02:53.804Z,30.82
2018-12-14T05:03:53.763Z,29.03
2018-12-14T05:04:53.719Z,28.28
2018-12-14T05:05:53.672Z,26.85
2018-12-14T05:06:53.635Z,28.27
2018-12-14T05:07:53.587Z,32.05
2018-12-14T05:08:53.543Z,31.67
2018-12-14T05:09:53.523Z,32.62
2018-12-14T05:10:53.449Z,30.82
2018-12-14T05:11:53.407Z,30.44
2018-12-14T05:12:56.329Z,29.60
2018-12-14T05:13:53.322Z,30.63
2018-12-14T05:14:53.273Z,29.60
2018-12-14T05:15:53.229Z,28.46
2018-12-14T05:16:53.188Z,28.55
2018-12-14T05:17:53.138Z,27.33
2018-12-14T05:18:53.119Z,27.51
2018-12-14T05:19:53.054Z,26.00
2018-12-14T05:20:53.073Z,26.85
2018-12-14T05:21:52.967Z,27.51
2018-12-14T05:22:52.916Z,27.23
2018-12-14T05:23:52.874Z,29.79
2018-12-14T05:24:52.830Z,27.98
2018-12-14T05:25:52.783Z,26.57
2018-12-14T05:26:52.747Z,25.81
2018-12-14T05:27:52.699Z,27.04
2018-12-14T05:28:52.653Z,26.66
2018-12-14T05:29:52.604Z,27.42
2018-12-14T05:30:52.566Z,27.98
2018-12-14T05:31:52.523Z,29.03
2018-12-14T05:32:52.476Z,26.28
2018-12-14T05:33:52.433Z,25.43
2018-12-14T05:34:52.382Z,24.77
2018-12-14T05:35:52.342Z,25.71
2018-12-14T05:36:52.298Z,26.47
2018-12-14T05:37:52.249Z,24.68
2018-12-14T05:38:52.212Z,26.47
2018-12-14T05:39:52.166Z,25.43
2018-12-14T05:40:52.124Z,24.21
2018-12-14T05:41:52.079Z,24.96
2018-12-14T05:42:52.030Z,26.85
2018-12-14T05:43:51.986Z,25.43
2018-12-14T05:44:51.946Z,25.24
2018-12-14T05:45:51.900Z,24.96
2018-12-14T05:46:51.853Z,22.97
2018-12-14T05:47:51.808Z,23.45
2018-12-14T05:48:51.764Z,24.30
2018-12-14T05:49:51.716Z,22.60
2018-12-14T05:50:51.678Z,22.31
2018-12-14T05:51:51.632Z,22.31
2018-12-14T05:52:51.589Z,23.07
2018-12-14T05:53:51.543Z,22.88
2018-12-14T05:54:51.497Z,23.26
2018-12-14T05:55:51.451Z,22.78
2018-12-14T05:56:51.406Z,21.37
2018-12-14T05:57:51.362Z,20.80
2018-12-14T05:58:51.324Z,21.08
2018-12-14T05:59:51.279Z,20.80
2018-12-14T06:00:51.228Z,20.61
2018-12-14T06:01:51.184Z,21.94
2018-12-14T06:02:51.142Z,21.84
2018-12-14T06:03:51.564Z,21.37
2018-12-14T06:04:51.057Z,21.65
2018-12-14T06:05:51.011Z,23.26
2018-12-14T06:06:50.964Z,24.68
2018-12-14T06:07:50.936Z,23.07
2018-12-14T06:08:50.874Z,21.46
2018-12-14T06:09:50.832Z,22.41
2018-12-14T06:10:50.789Z,24.96
2018-12-14T06:11:50.745Z,25.71
2018-12-14T06:12:50.702Z,26.38
2018-12-14T06:13:50.655Z,26.19
2018-12-14T06:14:50.611Z,24.58
2018-12-14T06:15:50.563Z,21.18
2018-12-14T06:16:50.524Z,21.08
2018-12-14T06:17:50.475Z,23.64
2018-12-14T06:18:50.432Z,21.84
2018-12-14T06:19:50.384Z,24.21
2018-12-14T06:20:50.341Z,23.73
2018-12-14T06:21:50.297Z,23.54
2018-12-14T06:22:50.255Z,24.58
2018-12-14T06:23:50.213Z,22.69
2018-12-14T06:24:50.172Z,21.27
2018-12-14T06:25:50.122Z,22.50
2018-12-14T06:26:50.101Z,22.41
2018-12-14T06:27:50.031Z,24.39
2018-12-14T06:28:49.989Z,24.68
2018-12-14T06:29:49.942Z,24.21
2018-12-14T06:30:49.900Z,22.88
2018-12-14T06:31:49.862Z,22.97
2018-12-14T06:32:49.808Z,24.77
2018-12-14T06:33:49.764Z,25.05
2018-12-14T06:34:49.723Z,25.71
2018-12-14T06:35:49.681Z,24.87
2018-12-14T06:36:49.638Z,25.90
2018-12-14T06:37:49.590Z,26.76
2018-12-14T06:38:49.544Z,26.66
2018-12-14T06:39:49.499Z,26.47
2018-12-14T06:40:49.456Z,24.87
2018-12-14T06:41:49.410Z,24.30
2018-12-14T06:42:49.368Z,24.30
2018-12-14T06:43:49.326Z,24.11
2018-12-14T06:44:49.281Z,24.68
2018-12-14T06:45:49.238Z,22.97
2018-12-14T06:46:49.188Z,23.26
2018-12-14T06:47:49.141Z,21.94
2018-12-14T06:48:49.105Z,23.64
2018-12-14T06:49:49.057Z,24.58
2018-12-14T06:50:49.011Z,23.83
2018-12-14T06:51:48.991Z,22.60
2018-12-14T06:52:48.920Z,22.97
2018-12-14T06:53:48.877Z,24.30
2018-12-14T06:54:48.835Z,23.54
2018-12-14T06:55:48.793Z,22.97
2018-12-14T06:56:48.751Z,22.78
2018-12-14T06:57:48.706Z,22.78
2018-12-14T06:58:48.655Z,24.87
2018-12-14T06:59:48.612Z,25.05
2018-12-14T07:00:48.566Z,25.81
2018-12-14T07:01:48.521Z,24.87
2018-12-14T07:02:48.480Z,26.85
2018-12-14T07:03:48.439Z,24.68
2018-12-14T07:04:48.388Z,25.62
2018-12-14T07:05:48.345Z,24.39
2018-12-14T07:06:48.303Z,23.64
2018-12-14T07:07:48.262Z,23.83
2018-12-14T07:08:48.217Z,22.41
2018-12-14T07:09:48.170Z,24.58
2018-12-14T07:10:48.173Z,24.11
2018-12-14T07:11:48.077Z,24.30
2018-12-14T07:12:48.033Z,24.68
2018-12-14T07:13:47.990Z,25.81
2018-12-14T07:14:47.950Z,26.00
2018-12-14T07:15:47.907Z,27.14
2018-12-14T07:16:47.861Z,26.09
2018-12-14T07:17:47.814Z,26.00
2018-12-14T07:18:47.770Z,25.43
2018-12-14T07:19:47.724Z,24.96
2018-12-14T07:20:47.684Z,24.39
2018-12-14T07:21:47.637Z,24.30
2018-12-14T07:22:47.590Z,24.96
2018-12-14T07:23:47.544Z,26.76
2018-12-14T07:24:47.500Z,29.88
2018-12-14T07:25:47.457Z,27.98
2018-12-14T07:26:47.414Z,28.27
2018-12-14T07:27:47.372Z,27.80
2018-12-14T07:28:47.329Z,26.57
2018-12-14T07:29:47.281Z,26.28
2018-12-14T07:30:47.240Z,26.47
2018-12-14T07:31:47.193Z,28.65
2018-12-14T07:32:47.145Z,27.33
2018-12-14T07:33:47.102Z,27.04
2018-12-14T07:34:47.086Z,26.47
2018-12-14T07:35:47.017Z,26.19
2018-12-14T07:36:46.967Z,24.87
2018-12-14T07:37:46.923Z,24.11
2018-12-14T07:38:48.288Z,25.34
2018-12-14T07:39:46.846Z,25.05
2018-12-14T07:40:46.796Z,24.58
2018-12-14T07:41:46.750Z,24.96
2018-12-14T07:42:46.702Z,24.77
2018-12-14T07:43:46.658Z,25.15
2018-12-14T07:44:46.782Z,24.11
2018-12-14T07:45:46.569Z,22.78
2018-12-14T07:46:46.526Z,26.09
2018-12-14T07:47:46.488Z,27.89
2018-12-14T07:48:46.443Z,27.98
2018-12-14T07:49:46.393Z,26.38
2018-12-14T07:50:46.345Z,25.34
2018-12-14T07:51:46.299Z,24.87
2018-12-14T07:52:46.261Z,24.02
2018-12-14T07:53:46.218Z,24.68
2018-12-14T07:54:46.169Z,26.38
2018-12-14T07:55:46.124Z,26.28
2018-12-14T07:56:46.078Z,26.09
2018-12-14T07:57:46.046Z,26.85
2018-12-14T07:58:45.994Z,24.49
2018-12-14T07:59:45.951Z,24.96
2018-12-14T08:00:45.907Z,26.85
2018-12-14T08:01:45.861Z,29.50
2018-12-14T08:02:45.814Z,29.69
2018-12-14T08:03:45.767Z,29.50
2018-12-14T08:04:45.723Z,28.08
2018-12-14T08:05:45.680Z,28.36
2018-12-14T08:06:45.639Z,29.31
2018-12-14T08:07:45.595Z,30.16
2018-12-14T08:08:45.547Z,28.65
2018-12-14T08:09:45.502Z,27.42
2018-12-14T08:10:45.459Z,26.85
2018-12-14T08:11:45.418Z,27.98
2018-12-14T08:12:45.374Z,26.95
2018-12-14T08:13:45.326Z,26.85
2018-12-14T08:14:45.283Z,26.95
2018-12-14T08:15:45.234Z,28.55
2018-12-14T08:16:45.193Z,28.93
2018-12-14T08:17:45.147Z,28.93
2018-12-14T08:18:45.109Z,29.41
2018-12-14T08:19:45.064Z,29.88
2018-12-14T08:20:45.018Z,28.65
2018-12-14T08:21:44.972Z,31.01
2018-12-14T08:22:44.926Z,31.20
2018-12-14T08:23:44.878Z,30.63
2018-12-14T08:24:44.841Z,29.88
2018-12-14T08:25:44.794Z,28.55
2018-12-14T08:26:44.750Z,29.79
2018-12-14T08:27:44.703Z,28.55
2018-12-14T08:28:44.660Z,30.44
2018-12-14T08:29:44.615Z,32.43
2018-12-14T08:30:44.576Z,35.08
2018-12-14T08:31:44.530Z,35.55
2018-12-14T08:32:44.485Z,34.51
2018-12-14T08:33:44.439Z,34.89
2018-12-14T08:34:50.770Z,33.28
2018-12-14T08:35:44.346Z,36.02
2018-12-14T08:36:44.303Z,34.99
2018-12-14T08:37:44.265Z,34.51
2018-12-14T08:38:44.219Z,33.94
2018-12-14T08:39:44.182Z,33.66
2018-12-14T08:40:44.125Z,33.37
2018-12-14T08:41:44.105Z,33.47
2018-12-14T08:42:44.039Z,33.37
2018-12-14T08:43:43.999Z,33.75
2018-12-14T08:44:43.956Z,33.28
2018-12-14T08:45:43.905Z,33.37
2018-12-14T08:46:43.859Z,31.98
2018-12-14T08:47:43.813Z,32.45
2018-12-14T08:48:43.769Z,31.58
2018-12-14T08:49:43.725Z,31.96
2018-12-14T08:50:43.687Z,31.10
2018-12-14T08:51:43.642Z,34.89
2018-12-14T08:52:43.599Z,36.33
2018-12-14T08:53:43.551Z,39.05
2018-12-14T08:54:43.503Z,41.51
2018-12-14T08:55:43.460Z,42.08
2018-12-14T08:56:43.472Z,41.53
2018-12-14T08:57:43.373Z,39.71
2018-12-14T08:58:43.327Z,39.81
2018-12-14T08:59:43.281Z,39.71
2018-12-14T09:00:43.238Z,36.49
2018-12-14T09:01:43.198Z,38.29
2018-12-14T09:02:43.153Z,37.16
2018-12-14T09:03:43.109Z,35.74
2018-12-14T09:04:43.068Z,34.70
2018-12-14T09:05:43.025Z,33.28
2018-12-14T09:06:42.976Z,32.53
2018-12-14T09:07:42.925Z,31.67
2018-12-14T09:08:42.881Z,34.89
2018-12-14T09:09:42.838Z,35.17
2018-12-14T09:10:42.799Z,34.32
2018-12-14T09:11:42.754Z,32.05
2018-12-14T09:12:42.704Z,30.26
2018-12-14T09:13:47.869Z,29.69
2018-12-14T09:14:42.619Z,33.47
2018-12-14T09:15:42.576Z,33.47
2018-12-14T09:16:42.532Z,31.67
2018-12-14T09:17:42.485Z,29.50
2018-12-14T09:18:42.439Z,28.93
2018-12-14T09:19:42.394Z,28.85
2018-12-14T09:20:42.348Z,32.73
2018-12-14T09:21:42.305Z,31.98
2018-12-14T09:22:42.264Z,33.47
2018-12-14T09:23:42.223Z,37.37
2018-12-14T09:24:42.177Z,35.95
2018-12-14T09:25:42.131Z,38.48
2018-12-14T09:26:42.083Z,36.49
2018-12-14T09:27:42.038Z,34.51
2018-12-14T09:28:42.000Z,34.04
2018-12-14T09:29:41.954Z,33.47
2018-12-14T09:30:42.764Z,32.43
2018-12-14T09:31:41.863Z,32.43
2018-12-14T09:32:41.818Z,31.77
2018-12-14T09:33:41.776Z,31.77
2018-12-14T09:34:41.735Z,32.34
2018-12-14T09:35:41.691Z,31.96
2018-12-14T09:36:41.645Z,30.16
2018-12-14T09:37:41.598Z,28.17
2018-12-14T09:38:41.552Z,26.85
2018-12-14T09:39:41.506Z,24.96
2018-12-14T09:40:41.464Z,22.13
2018-12-14T09:41:41.421Z,19.00
2018-12-14T09:42:41.378Z,17.30
2018-12-14T09:43:41.335Z,15.22
2018-12-14T09:44:41.285Z,13.71
2018-12-14T09:45:41.244Z,12.57
2018-12-14T09:46:41.201Z,10.40
2018-12-14T09:47:41.158Z,10.78
2018-12-14T09:48:41.115Z,8.79
2018-12-14T09:49:41.071Z,6.81
2018-12-14T09:50:41.024Z,8.13
2018-12-14T09:51:40.975Z,8.89
2018-12-14T09:52:40.933Z,7.37
2018-12-14T09:53:40.897Z,6.33
2018-12-14T09:54:40.847Z,11.06
2018-12-14T09:55:40.807Z,11.25
2018-12-14T09:56:40.760Z,10.21
2018-12-14T09:57:40.713Z,10.30
2018-12-14T09:58:40.666Z,8.70
2018-12-14T09:59:40.620Z,8.98
2018-12-14T10:00:40.582Z,7.95
2018-12-14T10:01:40.538Z,6.62
2018-12-14T10:02:40.489Z,5.96
2018-12-14T10:03:40.445Z,7.09
2018-12-14T10:04:40.399Z,8.22
2018-12-14T10:05:40.356Z,7.18
2018-12-14T10:20:05.287Z,17.60
2018-12-14T10:21:05.208Z,18.35
2018-12-14T10:22:05.164Z,18.54
2018-12-14T10:23:05.115Z,20.06
2018-12-14T10:24:05.066Z,20.72
2018-12-14T10:25:05.025Z,20.43
2018-12-14T10:26:04.980Z,22.14
2018-12-14T10:27:04.930Z,21.38
2018-12-14T10:28:13.542Z,20.15
2018-12-14T10:30:09.279Z,24.98
2018-12-14T10:31:09.210Z,25.26
2018-12-14T10:32:09.157Z,28.38
2018-12-14T10:33:09.117Z,26.30
2018-12-14T10:34:09.070Z,24.98
2018-12-14T10:35:09.024Z,30.46
2018-12-14T10:36:09.005Z,33.30
2018-12-14T10:37:08.937Z,35.10
2018-12-14T10:38:08.893Z,34.72
2018-12-14T10:39:08.845Z,33.49
2018-12-14T10:40:08.808Z,36.52
2018-12-14T10:41:08.760Z,38.88
2018-12-14T10:42:08.715Z,37.18
2018-12-14T10:43:08.673Z,37.55
2018-12-14T10:44:08.631Z,35.19
2018-12-14T10:45:08.581Z,35.57
2018-12-14T10:46:08.537Z,38.31
2018-12-14T10:47:08.490Z,40.20
2018-12-14T10:48:08.451Z,35.66
2018-12-14T10:49:08.408Z,35.76
2018-12-14T10:50:08.362Z,38.69
2018-12-14T10:51:08.320Z,40.96
2018-12-14T10:52:08.269Z,40.30
2018-12-14T10:53:08.226Z,40.58
2018-12-14T10:54:08.185Z,38.88
2018-12-14T10:55:08.145Z,40.49
2018-12-14T10:56:08.096Z,38.03
2018-12-14T10:57:08.050Z,37.93
2018-12-14T10:58:08.007Z,40.96
2018-12-14T10:59:07.961Z,40.96
2018-12-14T11:00:07.923Z,39.64
2018-12-14T11:01:07.876Z,41.25
2018-12-14T11:02:07.835Z,41.34
2018-12-14T11:03:07.796Z,39.07
2018-12-14T11:04:07.740Z,39.83
2018-12-14T11:05:07.699Z,38.41
2018-12-14T11:06:07.655Z,40.39
2018-12-14T11:07:07.609Z,40.68
2018-12-14T11:08:07.571Z,39.54
2018-12-14T11:09:07.529Z,41.25
2018-12-14T11:10:07.480Z,44.37
2018-12-14T11:11:07.434Z,45.69
2018-12-14T11:12:07.395Z,44.37
2018-12-14T11:13:07.351Z,43.80
2018-12-14T11:14:13.643Z,43.90
2018-12-14T11:15:07.264Z,43.23
2018-12-14T11:16:07.213Z,43.71
2018-12-14T11:17:07.174Z,42.47
2018-12-14T11:18:07.128Z,41.82
2018-12-14T11:19:07.084Z,39.45
2018-12-14T11:20:07.044Z,38.31
2018-12-14T11:21:06.998Z,39.64
2018-12-14T11:22:06.954Z,39.92
2018-12-14T11:23:06.913Z,40.20
2018-12-14T11:24:06.862Z,41.72
2018-12-14T11:25:06.821Z,42.66
2018-12-14T11:26:06.784Z,42.10
2018-12-14T11:27:06.737Z,39.64
2018-12-14T11:28:06.688Z,40.58
2018-12-14T11:29:06.646Z,42.76
2018-12-14T11:30:06.600Z,42.10
2018-12-14T11:31:06.556Z,41.25
2018-12-14T11:32:06.517Z,40.49
2018-12-14T11:33:06.471Z,43.42
2018-12-14T11:34:06.428Z,44.27
2018-12-14T11:35:06.386Z,43.04
2018-12-14T11:36:06.337Z,42.47
2018-12-14T11:37:06.294Z,43.61
2018-12-14T11:38:06.250Z,43.04
2018-12-14T11:39:06.210Z,43.61
2018-12-14T11:40:06.170Z,43.99
2018-12-14T11:41:06.125Z,42.19
2018-12-14T11:42:06.077Z,43.04
2018-12-14T11:43:06.030Z,46.92
2018-12-14T11:44:05.992Z,45.79
2018-12-14T11:45:05.945Z,42.95
2018-12-14T11:46:05.902Z,41.72
2018-12-14T11:47:05.860Z,41.44
2018-12-14T11:48:05.810Z,42.85
2018-12-14T11:49:05.769Z,44.37
2018-12-14T11:50:05.724Z,44.09
2018-12-14T11:51:05.684Z,43.42
2018-12-14T11:52:05.640Z,46.26
2018-12-14T11:53:05.595Z,46.36
2018-12-14T11:54:05.553Z,46.07
2018-12-14T11:55:05.509Z,44.18
2018-12-14T11:56:05.458Z,47.77
2018-12-14T11:57:05.416Z,50.61
2018-12-14T11:58:05.375Z,51.75
2018-12-14T11:59:05.333Z,57.23
2018-12-14T12:00:05.283Z,58.09
2018-12-14T12:01:05.242Z,57.54
2018-12-14T12:02:05.202Z,57.26
2018-12-14T12:03:05.152Z,59.12
2018-12-14T12:04:05.117Z,59.88
2018-12-14T12:05:05.070Z,65.28
2018-12-14T12:06:05.027Z,63.48
2018-12-14T12:07:04.985Z,63.48
2018-12-14T12:08:04.933Z,61.49
2018-12-14T12:09:04.893Z,61.96
2018-12-14T12:10:04.848Z,61.21
2018-12-14T12:11:04.802Z,63.01
2018-12-14T12:12:04.769Z,61.02
2018-12-14T12:13:04.719Z,60.17
2018-12-14T12:14:04.673Z,60.17
2018-12-14T12:15:04.639Z,58.47
2018-12-14T12:16:04.588Z,57.99
2018-12-14T12:17:04.543Z,66.98
2018-12-14T12:18:04.499Z,69.15
2018-12-14T12:19:04.457Z,67.74
2018-12-14T12:20:04.407Z,68.02
2018-12-14T12:21:04.366Z,68.59
2018-12-14T12:22:04.322Z,65.84
2018-12-14T12:23:04.276Z,65.09
2018-12-14T12:24:04.237Z,65.75
2018-12-14T12:25:04.193Z,65.18
2018-12-14T12:26:04.153Z,64.42
2018-12-14T12:27:04.109Z,61.87
2018-12-14T12:28:04.057Z,58.65
2018-12-14T12:29:04.015Z,56.38
2018-12-14T12:30:03.974Z,55.53
2018-12-14T12:31:03.932Z,63.29
2018-12-14T12:32:03.880Z,64.33
2018-12-14T12:33:03.837Z,63.57
2018-12-14T12:34:03.793Z,59.98
2018-12-14T12:35:03.748Z,60.93
2018-12-14T12:36:03.709Z,61.02
2018-12-14T12:37:03.663Z,62.25
2018-12-14T12:38:03.627Z,61.21
2018-12-14T12:39:03.578Z,60.55
2018-12-14T12:40:03.528Z,60.83
2018-12-14T12:41:03.487Z,58.75
2018-12-14T12:42:03.442Z,56.95
2018-12-14T12:43:03.396Z,54.21
2018-12-14T12:44:03.354Z,54.87
2018-12-14T12:45:03.315Z,59.69
2018-12-14T12:46:03.267Z,62.72
2018-12-14T12:47:03.220Z,60.74
2018-12-14T12:48:03.183Z,59.03
2018-12-14T12:49:03.138Z,58.37
2018-12-14T12:50:03.092Z,57.33
2018-12-14T12:51:03.430Z,56.95
2018-12-14T12:52:02.999Z,57.90
2018-12-14T12:53:02.958Z,60.07
2018-12-14T12:54:02.912Z,57.52
2018-12-14T12:55:02.869Z,57.04
2018-12-14T12:56:02.828Z,59.03
2018-12-14T12:57:02.786Z,58.84
2018-12-14T12:58:02.744Z,56.10
2018-12-14T12:59:02.697Z,55.91
2018-12-14T13:00:02.657Z,54.49
2018-12-14T13:01:02.603Z,55.25
2018-12-14T13:02:02.566Z,53.92
2018-12-14T13:03:02.521Z,51.84
2018-12-14T13:04:02.473Z,52.03
2018-12-14T13:05:02.428Z,50.52
2018-12-14T13:06:02.387Z,49.76
2018-12-14T13:07:02.346Z,49.38
2018-12-14T13:08:02.300Z,48.25
2018-12-14T13:09:02.258Z,49.66
2018-12-14T13:10:02.218Z,48.91
2018-12-14T13:11:02.170Z,48.34
2018-12-14T13:12:02.129Z,45.88
2018-12-14T13:13:02.078Z,48.82
2018-12-14T13:14:02.032Z,50.99
2018-12-14T13:15:01.992Z,51.37
2018-12-14T13:16:01.947Z,50.23
2018-12-14T13:17:01.905Z,50.61
2018-12-14T13:18:01.858Z,49.38
2018-12-14T13:19:01.816Z,46.07
2018-12-14T13:20:01.771Z,48.91
2018-12-14T13:21:01.744Z,50.42
2018-12-14T13:22:01.688Z,51.09